Terminal Aerodrome Forecast
Issued by NWS

Home | Current Version | Previous Version | Text Only | Print | Product List | Glossary On
Versions: 1 2 3 4 5 6 7 8 9 10 11 12 13 14 15 16 17 18 19 20 21 22 23 24 25
000
FTUS45 KBOU 131734
TAFAPA
TAF
KAPA 131734Z 1318/1418 04005KT P6SM FEW080 BKN220
     FM132000 23012KT P6SM VCTS SCT080CB BKN140 BKN200
      TEMPO 1321/1323 VRB20G35KT SCT040CB BKN120
     FM140100 13011KT P6SM FEW080 SCT140 BKN200
     FM140500 19011KT P6SM FEW140 SCT200
     FM141500 20010KT P6SM FEW140 FEW220=

USA.gov is the U.S. government's official web portal to all federal, state and local government web resources and services.